Tampa, Florida
Traffic Map
Current Weather Conditions
Tampa, Florida
Overcast Haze
Overcast
69°
Feels Like: 69°
Wind Chill: 69° Ceiling: 400
Heat Index: 69° Visibility: 2.5mi
Dew Point: 66° Wind: 7mph
Humidity: 90% Direction: 150° (SSE)
Pressure: 30.08in Gusts: 0mph
Raw Report DataKTPA 051153Z 15006KT 2 1/2SM BR OVC004 21/19 A3008 RMK AO2 SFC VIS 5 SLP185 T02060189 10217 20200 53016
Traffic Incident Summary
Active as of:
Severity:
Category:
InformationThere was an issue retrieving the traffic information for this location. Please try a different location or try again shortly.
Advertisements
Track Severe Weather on mobile